Terminal Aerodrome Forecast
Issued by NWS

Home | Current Version | Previous Version | Text Only | Print | Product List | Glossary On
Versions: 1 2 3 4 5 6 7 8 9 10 11 12 13 14 15 16 17 18 19 20
000
FTUS41 KBTV 211700
TAFMPV
TAF
KMPV 211725Z 2118/2218 VRB03KT 3SM -SHRA BR SCT005 BKN025 OVC040
      TEMPO 2118/2121 2SM -RA BR BKN005 OVC030
     FM212100 14006KT 5SM -SHRA BR OVC015
     FM220600 02005KT 2SM BR VCSH BKN008 OVC015
     FM221200 02005KT 5SM BR VCSH OVC015=

USA.gov is the U.S. government's official web portal to all federal, state and local government web resources and services.